Time;durP1;ratioP1;P1;durP2;ratioP2;P2;SDS_P1;SDS_P2;PMS_P1;PMS_P2;Temp;Humidity;BMP_temperature;BMP_pressure;BME280_temperature;BME280_humidity;BME280_pressure;Samples;Min_cycle;Max_cycle;Signal;HPM_P1;HPM_P2
2022/08/11 00:01:20;;;;;;;4.75;3.35;;;;;;;14.90;63.60;99354.28;1662245;85;27389;-57
2022/08/11 00:03:59;;;;;;;6.42;3.77;;;;;;;14.84;63.64;99345.37;1662447;86;25680;-57
2022/08/11 00:06:34;;;;;;;4.78;3.85;;;;;;;14.89;64.04;99347.97;1662937;86;25660;-57
2022/08/11 00:09:04;;;;;;;9.68;4.08;;;;;;;14.84;63.61;99350.89;1662693;86;26473;-57
2022/08/11 00:11:41;;;;;;;5.60;4.08;;;;;;;14.84;63.61;99350.89;1663209;86;25653;-57
2022/08/11 00:14:15;;;;;;;4.70;3.45;;;;;;;14.82;63.58;99344.87;1659412;86;27434;-57
2022/08/11 00:16:45;;;;;;;6.70;3.70;;;;;;;14.84;63.78;99351.45;1660257;86;25462;-57
2022/08/11 00:19:16;;;;;;;6.47;3.80;;;;;;;14.84;63.78;99351.45;1662485;86;25688;-57
2022/08/11 00:21:42;;;;;;;;;;;;;;;14.77;63.63;99334.78;1664786;85;26564;-57
2022/08/11 00:24:09;;;;;;;6.40;4.12;;;;;;;14.82;63.78;99346.25;1662954;85;25484;-57
2022/08/11 00:26:36;;;;;;;6.45;4.15;;;;;;;14.75;63.87;99348.11;1662802;86;27645;-57
2022/08/11 00:29:08;;;;;;;8.80;4.10;;;;;;;14.72;63.99;99345.17;1662874;86;25680;-57
2022/08/11 00:31:36;;;;;;;6.42;3.98;;;;;;;14.73;64.01;99348.98;1662602;85;25452;-57
2022/08/11 00:34:07;;;;;;;4.78;3.55;;;;;;;14.66;64.30;99343.98;1662525;86;25775;-57
2022/08/11 00:36:53;;;;;;;5.47;3.90;;;;;;;14.65;64.14;99347.84;1662781;85;25640;-57
2022/08/11 00:39:22;;;;;;;8.55;4.35;;;;;;;14.68;64.11;99341.69;1662797;86;27316;-57
2022/08/11 00:42:29;;;;;;;5.03;3.52;;;;;;;14.72;64.04;99341.86;1662809;85;25431;-57
2022/08/11 00:45:45;;;;;;;5.37;3.70;;;;;;;14.76;64.32;99336.48;1662198;85;25618;-57
2022/08/11 00:48:28;;;;;;;5.87;3.60;;;;;;;14.64;64.82;99337.96;1662466;85;26567;-58
2022/08/11 00:51:27;;;;;;;5.42;3.45;;;;;;;14.64;64.82;99337.96;1678559;84;25601;-57
2022/08/11 00:54:40;;;;;;;4.75;3.62;;;;;;;14.60;64.83;99337.00;1688780;84;28446;-57
2022/08/11 00:57:35;;;;;;;4.58;3.65;;;;;;;14.54;65.16;99332.77;1690578;84;25930;-57
2022/08/11 01:00:24;;;;;;;5.03;3.87;;;;;;;14.43;65.50;99332.28;1690841;84;25762;-57
2022/08/11 01:03:24;;;;;;;5.55;3.60;;;;;;;14.37;65.88;99330.81;1690347;84;25773;-57
2022/08/11 01:06:31;;;;;;;5.58;3.90;;;;;;;14.28;66.26;99329.42;1646611;87;25501;-57
2022/08/11 01:09:15;;;;;;;5.58;4.17;;;;;;;14.27;66.52;99324.47;1570559;91;30561;-57
2022/08/11 01:12:15;;;;;;;5.40;4.00;;;;;;;14.20;67.10;99331.03;1570201;91;25952;-57
2022/08/11 01:15:15;;;;;;;6.83;3.90;;;;;;;14.17;67.16;99330.30;1554399;92;25587;-57
2022/08/11 01:18:13;;;;;;;7.55;4.10;;;;;;;14.12;67.37;99329.87;1554847;92;25755;-57
2022/08/11 01:20:59;;;;;;;6.55;4.50;;;;;;;14.09;67.74;99333.83;1554859;92;25720;-57
2022/08/11 01:23:48;;;;;;;7.60;4.60;;;;;;;14.07;67.71;99337.50;1554564;92;27446;-57
2022/08/11 01:26:57;;;;;;;6.17;3.83;;;;;;;13.99;68.36;99330.23;1506550;94;25733;-57
2022/08/11 01:30:07;;;;;;;5.28;4.40;;;;;;;14.00;68.53;99330.50;1554113;92;25909;-57
2022/08/11 01:33:13;;;;;;;7.17;4.80;;;;;;;13.96;68.67;99329.50;1554403;92;25799;-57
2022/08/11 01:36:03;;;;;;;7.10;4.17;;;;;;;14.01;68.94;99327.16;1554808;92;25536;-57
2022/08/11 01:38:57;;;;;;;5.17;4.00;;;;;;;13.96;69.29;99321.23;1554644;92;28502;-58
2022/08/11 01:45:18;;;;;;;5.08;4.00;;;;;;;13.97;70.15;99313.23;1584235;90;25749;-58
2022/08/11 01:48:04;;;;;;;6.20;4.00;;;;;;;13.95;70.16;99312.73;1638415;87;25791;-58
2022/08/11 01:51:00;;;;;;;6.15;4.10;;;;;;;14.01;70.29;99314.21;1638592;86;25646;-58
2022/08/11 01:53:58;;;;;;;8.63;4.22;;;;;;;14.23;70.84;99308.89;1669575;85;28323;-58
2022/08/11 01:56:32;;;;;;;6.03;4.20;;;;;;;14.30;70.83;99309.22;1669557;86;25525;-57
2022/08/11 01:59:17;;;;;;;5.95;3.77;;;;;;;14.30;70.83;99309.22;1670016;85;25648;-57
2022/08/11 02:02:12;;;;;;;7.33;4.28;;;;;;;14.33;71.22;99311.33;1669869;85;25692;-58
2022/08/11 02:04:56;;;;;;;7.50;4.72;;;;;;;14.40;71.73;99308.11;1669565;85;25648;-58
2022/08/11 02:08:01;;;;;;;5.30;4.00;;;;;;;14.40;71.73;99308.11;1669574;85;27318;-58
2022/08/11 02:13:43;;;;;;;6.15;3.92;;;;;;;14.48;71.38;99304.52;1618992;88;25727;-57
2022/08/11 02:16:49;;;;;;;4.62;4.22;;;;;;;14.52;71.58;99306.90;1618962;88;26547;-57
2022/08/11 02:25:46;;;;;;;5.97;4.42;;;;;;;14.71;70.02;99308.48;1618854;88;25851;-57
2022/08/11 02:28:27;;;;;;;8.15;4.25;;;;;;;14.77;70.02;99305.02;1619282;88;25715;-58
2022/08/11 02:33:55;;;;;;;5.87;4.10;;;;;;;14.61;70.53;99309.64;1619218;88;25726;-57
2022/08/11 02:36:30;;;;;;;7.70;4.70;;;;;;;14.57;70.35;99300.97;1618943;88;27417;-57
2022/08/11 02:39:08;;;;;;;5.95;4.15;;;;;;;14.68;70.12;99308.58;1617018;88;25822;-57
2022/08/11 02:42:24;;;;;;;5.40;3.98;;;;;;;14.72;70.07;99303.80;1630406;87;25696;-58
2022/08/11 02:45:25;;;;;;;8.33;4.33;;;;;;;14.78;69.83;99306.63;1639699;87;26083;-58
2022/08/11 02:51:10;;;;;;;6.60;4.35;;;;;;;14.78;69.87;99301.97;1639868;87;27412;-58
2022/08/11 02:53:52;;;;;;;6.30;4.30;;;;;;;14.75;69.83;99298.45;1641364;87;25887;-58
2022/08/11 02:56:30;;;;;;;5.67;3.98;;;;;;;14.79;69.99;99300.00;1634188;87;25672;-57
2022/08/11 03:02:33;;;;;;;7.30;4.42;;;;;;;14.83;70.24;99302.36;1641035;87;25499;-57
2022/08/11 03:05:10;;;;;;;7.55;4.53;;;;;;;14.82;70.65;99304.07;1617657;87;28289;-57
2022/08/11 03:08:01;;;;;;;10.50;6.47;;;;;;;14.81;70.69;99301.88;1641157;87;26333;-57
2022/08/11 03:10:42;;;;;;;9.68;6.10;;;;;;;14.81;70.69;99301.88;1640901;87;25514;-57
2022/08/11 03:16:44;;;;;;;8.25;6.50;;;;;;;14.79;70.84;99300.00;1624992;87;33109;-57
2022/08/11 03:19:19;;;;;;;9.15;6.30;;;;;;;14.89;70.67;99301.06;1636637;87;27522;-57
2022/08/11 03:22:05;;;;;;;9.73;5.90;;;;;;;14.83;70.81;99298.78;1641078;87;26088;-57
2022/08/11 03:24:55;;;;;;;6.33;4.80;;;;;;;14.77;71.03;99298.13;1640201;87;25979;-57
2022/08/11 03:27:44;;;;;;;7.78;4.92;;;;;;;14.81;70.55;99290.84;1641293;87;25862;-57
2022/08/11 03:30:19;;;;;;;6.33;4.53;;;;;;;14.81;70.55;99290.84;1641180;87;25677;-57
2022/08/11 03:36:24;;;;;;;9.33;5.10;;;;;;;14.77;71.11;99309.16;1641032;87;25670;-58
2022/08/11 03:39:09;;;;;;;6.33;4.25;;;;;;;14.76;71.01;99308.89;1641068;87;25454;-57
2022/08/11 03:42:02;;;;;;;5.85;4.30;;;;;;;14.77;71.14;99305.02;1640823;87;27855;-57
2022/08/11 03:44:55;;;;;;;7.35;4.55;;;;;;;14.77;71.14;99305.02;1635104;87;25772;-58
2022/08/11 03:48:08;;;;;;;6.58;4.20;;;;;;;14.78;71.18;99299.73;1633399;87;27554;-58
2022/08/11 03:50:52;;;;;;;8.03;4.58;;;;;;;14.81;71.05;99303.25;1628632;87;25443;-58
2022/08/11 03:53:50;;;;;;;6.28;4.20;;;;;;;14.73;71.20;99310.37;1579489;89;25932;-59
2022/08/11 03:56:30;;;;;;;7.28;4.50;;;;;;;14.74;70.85;99311.19;1567819;91;26125;-58
2022/08/11 03:59:10;;;;;;;7.37;4.50;;;;;;;14.81;70.72;99306.01;1568699;90;25864;-58
2022/08/11 04:02:14;;;;;;;6.80;4.72;;;;;;;14.80;70.81;99305.19;1572079;90;27492;-58
2022/08/11 04:05:19;;;;;;;6.50;4.58;;;;;;;14.79;70.86;99305.52;1583952;90;25547;-58
2022/08/11 04:08:10;;;;;;;7.70;4.80;;;;;;;14.77;71.17;99308.57;1582811;90;25556;-58
2022/08/11 04:11:17;;;;;;;7.70;5.05;;;;;;;14.79;71.13;99305.52;1584579;90;25765;-58
2022/08/11 04:17:33;;;;;;;7.62;4.42;;;;;;;14.85;70.56;99301.45;1542433;92;25837;-59
2022/08/11 04:20:38;;;;;;;9.13;4.78;;;;;;;14.86;70.62;99311.94;1542436;92;25750;-58
2022/08/11 04:23:38;;;;;;;10.03;4.83;;;;;;;14.86;70.97;99305.85;1542342;92;25861;-58
2022/08/11 04:26:32;;;;;;;7.35;5.55;;;;;;;14.98;71.07;99305.18;1542397;92;25730;-58
2022/08/11 04:29:23;;;;;;;10.55;4.83;;;;;;;15.12;71.37;99306.94;1534775;92;26207;-58
2022/08/11 04:32:27;;;;;;;8.65;4.78;;;;;;;15.21;70.73;99309.66;1562198;91;27860;-58
2022/08/11 04:35:20;;;;;;;8.20;4.47;;;;;;;15.26;70.27;99309.50;1563048;91;25994;-58
2022/08/11 04:37:57;;;;;;;7.05;4.42;;;;;;;15.33;70.55;99313.11;1562854;91;25751;-58
2022/08/11 04:41:03;;;;;;;8.48;4.78;;;;;;;15.57;70.91;99307.02;1563113;91;26551;-58
2022/08/11 04:44:27;;;;;;;7.50;4.70;;;;;;;15.57;70.91;99307.02;1526575;94;25727;-58
2022/08/11 05:01:39;;;;;;;6.90;4.90;;;;;;;15.90;71.14;99302.80;1526366;94;28428;-58
2022/08/11 05:03:08;;;;;;;6.08;4.53;;;;;;;17.12;67.46;99302.77;1591936;90;25627;-59
2022/08/11 05:06:02;;;;;;;12.07;5.10;;;;;;;17.32;66.45;99309.39;1590409;90;25566;-59
2022/08/11 05:08:50;;;;;;;10.03;4.83;;;;;;;17.60;66.03;99310.13;1567294;91;25790;-58
2022/08/11 05:11:34;;;;;;;9.18;4.85;;;;;;;17.79;64.53;99311.53;1567133;91;26534;-58
2022/08/11 05:36:50;;;;;;;5.17;3.17;;;;;;;18.63;61.30;99320.43;1495000;96;25753;-60
2022/08/11 05:56:19;;;;;;;4.33;2.85;;;;;;;19.68;59.67;99316.04;1485359;96;25565;-58
2022/08/11 05:58:51;;;;;;;5.53;2.72;;;;;;;19.82;59.21;99310.02;1485307;96;27515;-59
2022/08/11 06:01:29;;;;;;;6.00;2.87;;;;;;;20.06;58.67;99322.13;1485516;96;25618;-58
2022/08/11 06:04:13;;;;;;;6.92;3.00;;;;;;;20.20;58.55;99318.08;1485552;96;25872;-58
2022/08/11 06:06:57;;;;;;;5.95;3.30;;;;;;;20.28;57.72;99319.83;1554396;92;25922;-59
2022/08/11 06:09:31;;;;;;;4.65;2.90;;;;;;;20.31;57.17;99321.31;1601621;89;25526;-58
2022/08/11 06:12:06;;;;;;;11.45;2.83;;;;;;;20.30;56.82;99324.45;1601641;89;27399;-58
2022/08/11 06:14:35;;;;;;;4.83;2.70;;;;;;;20.31;56.35;99324.67;1580884;89;25734;-58
2022/08/11 06:17:05;;;;;;;5.80;2.80;;;;;;;20.27;56.88;99330.15;1580709;89;25736;-59
2022/08/11 06:19:38;;;;;;;6.75;3.08;;;;;;;20.33;56.64;99331.27;1601797;89;25732;-58
2022/08/11 06:22:09;;;;;;;6.05;3.00;;;;;;;20.46;56.35;99329.17;1601739;89;25510;-59
2022/08/11 06:24:39;;;;;;;3.80;2.45;;;;;;;20.55;56.05;99333.92;1626257;86;26923;-58
2022/08/11 06:27:07;;;;;;;;;;;;;;;20.59;55.41;99336.22;1662996;86;25463;-58
2022/08/11 06:29:40;;;;;;;4.22;2.62;;;;;;;20.75;56.22;99332.56;1660279;86;25713;-58
2022/08/11 06:32:12;;;;;;;5.97;2.80;;;;;;;20.99;55.95;99336.23;1634688;86;26929;-58
2022/08/11 06:35:21;;;;;;;6.40;2.75;;;;;;;21.19;56.09;99324.48;1660366;86;25454;-58
2022/08/11 06:38:02;;;;;;;4.95;2.52;;;;;;;21.34;54.97;99328.33;1656484;86;27472;-58
2022/08/11 06:43:55;;;;;;;5.60;2.98;;;;;;;21.37;53.42;99329.56;1617991;88;25717;-58
2022/08/11 06:46:38;;;;;;;5.85;2.87;;;;;;;21.62;54.29;99325.02;1599687;89;26555;-60
2022/08/11 06:52:05;;;;;;;4.80;2.50;;;;;;;21.89;53.86;99328.67;1567257;91;25710;-58
2022/08/11 06:54:41;;;;;;;6.05;2.55;;;;;;;22.18;51.73;99329.68;1567150;91;26031;-59
2022/08/11 07:03:09;;;;;;;4.90;2.58;;;;;;;22.39;50.48;99324.98;1567267;91;25876;-58
2022/08/11 07:06:02;;;;;;;5.87;2.47;;;;;;;22.30;50.62;99325.85;1567184;91;27666;-58
2022/08/11 07:29:02;;;;;;;2.80;1.80;;;;;;;23.01;49.23;99325.77;1534183;92;25749;-59
2022/08/11 07:31:39;;;;;;;5.43;2.60;;;;;;;23.24;47.98;99326.80;1534514;93;25872;-59
2022/08/11 07:34:33;;;;;;;3.87;1.90;;;;;;;23.12;48.87;99330.67;1534044;92;25922;-59
2022/08/11 07:37:19;;;;;;;3.10;1.90;;;;;;;23.25;48.49;99325.02;1534506;93;25845;-59
2022/08/11 07:39:48;;;;;;;4.42;2.30;;;;;;;23.51;47.14;99330.86;1534415;93;25599;-59
2022/08/11 07:42:20;;;;;;;2.87;2.00;;;;;;;23.74;46.58;99333.46;1534251;93;26586;-58
2022/08/11 07:53:09;;;;;;;4.60;2.15;;;;;;;24.06;46.07;99334.88;1609614;89;25609;-59
2022/08/11 07:55:37;;;;;;;3.62;2.00;;;;;;;24.17;45.36;99335.80;1609448;88;25735;-58
2022/08/11 08:17:55;;;;;;;2.95;1.40;;;;;;;24.75;43.66;99330.30;1593509;89;25756;-61
2022/08/11 08:20:28;;;;;;;3.33;1.60;;;;;;;24.97;42.81;99332.59;1609539;88;25511;-58
2022/08/11 08:22:58;;;;;;;2.95;1.40;;;;;;;25.18;42.32;99323.42;1609774;88;25844;-59
2022/08/11 08:25:31;;;;;;;1.60;1.47;;;;;;;25.47;41.16;99321.88;1609857;89;25633;-60
2022/08/11 08:28:03;;;;;;;1.87;1.45;;;;;;;25.30;40.57;99325.66;1609424;88;27400;-63
2022/08/11 08:33:23;;;;;;;2.98;1.42;;;;;;;25.28;40.66;99328.05;1608400;89;25731;-59
2022/08/11 08:36:10;;;;;;;4.72;1.32;;;;;;;25.19;40.62;99322.22;1609576;88;26564;-63
2022/08/11 08:38:24;;;;;;;2.08;1.57;;;;;;;25.18;41.30;99319.22;1609690;88;25692;-61
2022/08/11 08:40:53;;;;;;;1.57;1.20;;;;;;;25.30;40.18;99319.44;1609414;88;27538;-58
2022/08/11 08:43:23;;;;;;;1.70;1.17;;;;;;;25.35;40.91;99318.83;1609999;89;25634;-58
2022/08/11 08:45:53;;;;;;;3.00;1.50;;;;;;;25.11;40.55;99316.41;1609804;88;32308;-61
2022/08/11 08:48:24;;;;;;;1.52;1.20;;;;;;;25.13;41.22;99318.20;1608446;89;26513;-63
2022/08/11 08:53:43;;;;;;;;;;;;;;;25.27;40.32;99317.42;1611119;89;25706;-59
2022/08/11 08:56:11;;;;;;;3.33;1.37;;;;;;;25.00;40.57;99312.77;1608787;89;26061;-58
2022/08/11 08:58:41;;;;;;;2.25;1.30;;;;;;;24.84;40.68;99315.91;1608352;89;25726;-63
2022/08/11 09:01:10;;;;;;;1.40;1.30;;;;;;;24.62;40.68;99317.22;1608751;89;26665;-59
2022/08/11 09:03:38;;;;;;;2.05;1.32;;;;;;;24.17;41.05;99302.79;1608824;89;33433;-59
2022/08/11 09:06:06;;;;;;;1.40;1.12;;;;;;;24.17;41.05;99302.79;1608403;89;27624;-63
2022/08/11 09:08:34;;;;;;;2.95;1.40;;;;;;;24.18;41.01;99307.22;1608656;89;25670;-59
2022/08/11 09:13:51;;;;;;;2.30;1.30;;;;;;;24.22;41.62;99301.62;1608398;89;25707;-59
2022/08/11 09:16:18;;;;;;;2.40;1.47;;;;;;;24.26;41.84;99299.66;1608868;89;25692;-62
2022/08/11 09:18:45;;;;;;;1.87;1.40;;;;;;;24.53;41.91;99308.56;1638353;86;27897;-60
2022/08/11 09:21:14;;;;;;;3.05;1.42;;;;;;;24.79;40.80;99301.67;1642132;86;25723;-59
2022/08/11 09:29:15;;;;;;;3.27;1.50;;;;;;;24.99;40.42;99297.16;1642273;87;25680;-59
2022/08/11 09:31:43;;;;;;;3.30;1.40;;;;;;;24.95;40.84;99292.92;1642287;87;27491;-64
2022/08/11 09:34:13;;;;;;;3.47;1.40;;;;;;;24.91;39.33;99294.34;1642488;86;25697;-61
2022/08/11 09:42:22;;;;;;;3.75;1.45;;;;;;;24.42;40.02;99289.52;1642489;87;25407;-58
2022/08/11 09:44:49;;;;;;;2.25;1.50;;;;;;;24.62;40.03;99287.80;1642578;86;27426;-58
2022/08/11 09:47:25;;;;;;;3.85;1.50;;;;;;;25.09;39.92;99281.53;1646826;86;25507;-59
2022/08/11 09:49:58;;;;;;;1.90;1.17;;;;;;;25.78;39.59;99275.38;1657451;86;25683;-59
2022/08/11 09:52:26;;;;;;;2.75;1.60;;;;;;;26.29;38.49;99276.67;1657246;86;25626;-58
2022/08/11 09:54:55;;;;;;;2.05;1.20;;;;;;;26.11;37.35;99268.30;1657681;86;25725;-60
2022/08/11 10:00:11;;;;;;;2.92;1.57;;;;;;;25.62;37.49;99263.15;1656285;86;25680;-59
2022/08/11 10:02:45;;;;;;;3.17;1.40;;;;;;;25.94;37.22;99269.31;1657597;86;25527;-59
2022/08/11 10:08:05;;;;;;;2.95;1.60;;;;;;;25.25;38.18;99270.77;1657455;86;25716;-58
2022/08/11 10:10:37;;;;;;;3.87;1.60;;;;;;;24.88;39.22;99274.11;1657973;86;27341;-59
2022/08/11 10:13:08;;;;;;;2.92;1.50;;;;;;;24.68;39.60;99267.42;1657686;86;25489;-59
2022/08/11 10:15:37;;;;;;;3.62;1.80;;;;;;;24.76;40.45;99267.44;1657650;86;25722;-58
2022/08/11 10:21:09;;;;;;;2.92;1.70;;;;;;;24.97;40.76;99264.50;1657493;86;25661;-59
2022/08/11 10:34:47;;;;;;;3.77;2.02;;;;;;;25.08;39.82;99247.69;1657520;86;25486;-62
2022/08/11 10:37:23;;;;;;;3.80;1.85;;;;;;;24.77;39.92;99253.03;1657710;86;27449;-59
2022/08/11 10:39:52;;;;;;;4.20;1.70;;;;;;;24.99;40.32;99245.28;1657704;86;25731;-58
2022/08/11 10:47:38;;;;;;;1.77;1.10;;;;;;;26.08;39.03;99231.80;1611781;88;25553;-60
2022/08/11 10:58:48;;;;;;;1.45;1.17;;;;;;;26.02;36.82;99224.40;1597554;89;25832;-58
2022/08/11 11:01:25;;;;;;;2.60;1.30;;;;;;;26.03;36.43;99226.80;1597882;89;25514;-58
2022/08/11 11:03:57;;;;;;;2.30;1.50;;;;;;;25.65;36.91;99222.27;1586073;89;27455;-58
2022/08/11 11:06:54;;;;;;;1.75;1.22;;;;;;;25.37;37.47;99228.89;1585186;90;25743;-60
2022/08/11 11:09:33;;;;;;;1.30;1.20;;;;;;;25.24;36.95;99222.86;1585167;90;25826;-59
2022/08/11 11:18:03;;;;;;;2.02;1.50;;;;;;;26.20;37.11;99208.88;1566041;91;25637;-60
2022/08/11 11:20:42;;;;;;;3.33;1.40;;;;;;;26.51;37.24;99208.36;1567382;91;25651;-59
2022/08/11 11:23:20;;;;;;;2.87;1.50;;;;;;;26.56;35.72;99211.54;1566358;91;25523;-59
2022/08/11 11:26:09;;;;;;;2.42;1.40;;;;;;;26.19;36.17;99210.07;1560600;91;25753;-61
2022/08/11 11:29:03;;;;;;;4.60;1.40;;;;;;;25.80;36.21;99205.61;1625480;88;25712;-60
2022/08/11 11:32:13;;;;;;;4.12;1.55;;;;;;;25.35;36.69;99208.03;1626010;87;27476;-60
2022/08/11 11:35:13;;;;;;;4.25;1.42;;;;;;;25.18;37.46;99208.45;1625765;88;25514;-59
2022/08/11 11:37:42;;;;;;;;;;;;;;;25.02;37.71;99201.03;1628089;88;25703;-59
2022/08/11 11:40:13;;;;;;;2.80;1.50;;;;;;;25.21;37.81;99199.05;1625760;88;25690;-59
2022/08/11 11:42:43;;;;;;;2.37;1.30;;;;;;;25.93;37.50;99189.11;1625848;88;25466;-59
2022/08/11 11:45:16;;;;;;;4.08;1.37;;;;;;;26.40;35.76;99187.34;1625509;87;27489;-60
2022/08/11 11:47:44;;;;;;;2.72;1.50;;;;;;;26.17;35.97;99186.60;1635470;85;25704;-58
2022/08/11 11:50:12;;;;;;;3.35;1.50;;;;;;;26.44;35.78;99186.72;1669691;85;25717;-57
2022/08/11 11:52:40;;;;;;;3.33;1.47;;;;;;;26.80;36.22;99178.67;1667371;85;26785;-57
2022/08/11 11:55:09;;;;;;;2.58;1.30;;;;;;;27.58;35.31;99166.37;1670230;85;25482;-57
2022/08/11 12:03:10;;;;;;;2.05;1.42;;;;;;;28.42;31.45;99163.39;1670007;85;25491;-58
2022/08/11 12:05:38;;;;;;;;;;;;;;;28.04;32.54;99156.41;1672893;85;25957;-58
2022/08/11 12:08:19;;;;;;;2.08;1.10;;;;;;;28.18;32.66;99161.07;1670013;85;25472;-58
2022/08/11 12:13:45;;;;;;;3.60;1.22;;;;;;;27.71;32.99;99161.64;1669906;85;25678;-58
2022/08/11 12:16:14;;;;;;;1.57;1.12;;;;;;;27.47;33.81;99160.04;1670084;85;25655;-58
2022/08/11 12:18:46;;;;;;;2.93;1.40;;;;;;;27.27;32.91;99155.81;1670446;85;25735;-58
2022/08/11 12:21:15;;;;;;;3.08;1.20;;;;;;;26.98;33.18;99147.60;1670065;85;25462;-59
2022/08/11 12:29:19;;;;;;;3.52;1.60;;;;;;;26.48;34.63;99149.55;1650519;85;25504;-60
2022/08/11 12:31:47;;;;;;;2.12;1.40;;;;;;;26.49;34.34;99141.34;1670237;85;25755;-61
2022/08/11 12:34:16;;;;;;;2.47;1.42;;;;;;;26.34;34.91;99140.63;1670358;85;25701;-58
2022/08/11 12:36:58;;;;;;;2.93;1.60;;;;;;;26.40;34.76;99133.97;1670449;85;27445;-58
2022/08/11 12:53:33;;;;;;;2.70;1.45;;;;;;;28.85;32.13;99103.92;1627642;88;25459;-59
2022/08/11 12:58:51;;;;;;;3.57;1.40;;;;;;;29.18;31.83;99102.16;1628174;88;25681;-59
2022/08/11 13:06:52;;;;;;;2.92;1.35;;;;;;;29.74;29.64;99092.05;1624157;88;25452;-58
2022/08/11 13:09:20;;;;;;;2.37;1.20;;;;;;;28.89;30.59;99094.17;1627805;87;25680;-57
2022/08/11 13:14:33;;;;;;;1.87;1.27;;;;;;;27.96;31.82;99099.98;1627826;88;25661;-58
2022/08/11 13:19:47;;;;;;;1.40;1.02;;;;;;;27.48;31.84;99098.30;1627707;88;25674;-58
2022/08/11 13:22:18;;;;;;;2.55;1.20;;;;;;;27.20;32.62;99103.04;1628051;88;25733;-58
2022/08/11 13:24:47;;;;;;;3.05;1.25;;;;;;;26.79;33.46;99092.72;1628096;88;25720;-58
2022/08/11 13:27:17;;;;;;;2.83;1.30;;;;;;;26.73;33.87;99090.97;1628130;88;25484;-60
2022/08/11 13:29:47;;;;;;;3.55;1.20;;;;;;;26.70;34.59;99096.01;1628090;88;27491;-58
2022/08/11 13:32:15;;;;;;;1.67;1.20;;;;;;;26.66;33.91;99087.63;1628151;88;25486;-58
2022/08/11 13:34:43;;;;;;;1.72;1.20;;;;;;;27.05;33.68;99088.50;1627820;87;25641;-60
2022/08/11 13:37:13;;;;;;;2.12;1.17;;;;;;;27.81;33.62;99078.42;1627879;88;26500;-61
2022/08/11 13:39:53;;;;;;;4.80;1.17;;;;;;;28.62;32.36;99071.67;1628562;88;25489;-59
2022/08/11 13:42:20;;;;;;;1.55;1.15;;;;;;;29.01;31.30;99069.44;1627746;88;27438;-61
2022/08/11 13:44:47;;;;;;;3.42;1.27;;;;;;;29.03;30.09;99071.20;1627863;88;25625;-59
2022/08/11 13:47:15;;;;;;;1.62;1.05;;;;;;;29.09;30.67;99068.67;1627789;87;25635;-58
2022/08/11 13:49:44;;;;;;;2.87;1.17;;;;;;;29.10;30.66;99069.65;1649956;85;25895;-59
2022/08/11 13:52:15;;;;;;;6.17;1.25;;;;;;;29.23;30.71;99067.61;1658187;86;25653;-59
2022/08/11 13:54:46;;;;;;;2.47;1.30;;;;;;;29.05;30.56;99063.92;1657777;86;27501;-58
2022/08/11 13:57:17;;;;;;;2.67;1.00;;;;;;;28.73;30.50;99069.48;1658017;86;25526;-57
2022/08/11 13:59:45;;;;;;;3.60;0.95;;;;;;;28.05;31.93;99074.91;1657492;86;25518;-58
2022/08/11 14:02:17;;;;;;;0.80;0.70;;;;;;;27.53;32.07;99068.30;1657975;86;25786;-59
2022/08/11 14:04:54;;;;;;;1.05;0.80;;;;;;;27.30;32.74;99066.95;1657693;86;25470;-58
2022/08/11 14:07:26;;;;;;;1.30;0.70;;;;;;;27.24;32.87;99063.81;1657775;86;27461;-60
2022/08/11 14:09:59;;;;;;;1.05;0.80;;;;;;;27.19;31.76;99057.22;1654872;86;25710;-57
2022/08/11 14:15:23;;;;;;;1.20;0.88;;;;;;;27.41;31.44;99038.09;1655524;86;25770;-58
2022/08/11 14:18:06;;;;;;;1.50;0.90;;;;;;;27.52;31.66;99030.91;1656657;86;25717;-57
2022/08/11 14:23:33;;;;;;;;;;;;;;;27.60;31.63;99025.21;1660109;86;25660;-57
2022/08/11 14:28:46;;;;;;;1.57;0.80;;;;;;;27.44;31.09;99036.45;1657515;86;25676;-60
2022/08/11 14:31:15;;;;;;;1.00;0.72;;;;;;;27.11;31.98;99043.06;1657482;86;25462;-58
2022/08/11 14:33:43;;;;;;;1.37;1.07;;;;;;;26.82;32.16;99049.72;1657856;86;28047;-61
2022/08/11 14:36:11;;;;;;;2.25;0.95;;;;;;;26.38;32.95;99043.66;1657466;86;25481;-58
2022/08/11 14:38:39;;;;;;;10.45;1.55;;;;;;;26.15;33.78;99053.42;1657757;86;25767;-58
2022/08/11 14:49:29;;;;;;;2.45;1.07;;;;;;;22.05;51.54;99147.72;1657338;86;25654;-60
2022/08/11 14:51:57;;;;;;;3.00;1.17;;;;;;;21.15;54.70;99126.55;1657859;86;25465;-60
2022/08/11 14:57:17;;;;;;;0.82;0.75;;;;;;;19.91;60.88;99149.91;1657529;86;25619;-61
2022/08/11 14:59:49;;;;;;;2.77;1.00;;;;;;;19.27;62.59;99150.31;1657666;86;27557;-63
2022/08/11 15:05:05;;;;;;;2.45;1.00;;;;;;;18.60;64.59;99139.33;1657474;86;25447;-63
2022/08/11 15:07:33;;;;;;;0.97;0.90;;;;;;;18.27;65.13;99144.58;1658028;86;25694;-61
2022/08/11 15:10:05;;;;;;;3.98;0.93;;;;;;;18.05;66.65;99157.23;1657622;86;25642;-64
2022/08/11 15:12:34;;;;;;;3.52;1.00;;;;;;;17.85;67.55;99154.89;1656827;85;27417;-61
2022/08/11 15:17:34;;;;;;;1.45;0.90;;;;;;;17.60;69.58;99158.28;1609347;88;25577;-60
2022/08/11 15:25:38;;;;;;;2.85;1.17;;;;;;;17.52;71.06;99173.88;1598458;89;27502;-60
2022/08/11 15:39:24;;;;;;;3.62;1.40;;;;;;;17.28;73.10;99192.14;1604678;89;25631;-58
2022/08/11 15:48:03;;;;;;;3.02;1.52;;;;;;;17.37;72.86;99181.75;1604660;89;25555;-59
2022/08/11 15:50:33;;;;;;;3.50;1.50;;;;;;;17.34;73.29;99169.98;1601172;89;25556;-59
2022/08/11 15:53:08;;;;;;;2.90;1.55;;;;;;;17.40;72.66;99170.55;1600553;89;27670;-60
2022/08/11 15:55:37;;;;;;;2.10;1.30;;;;;;;17.52;73.41;99163.61;1644468;86;25473;-62
2022/08/11 16:04:12;;;;;;;2.27;1.42;;;;;;;17.43;74.47;99155.43;1658888;86;26257;-62
2022/08/11 16:06:52;;;;;;;4.15;1.52;;;;;;;17.39;73.90;99161.42;1662767;86;27289;-61
2022/08/11 16:09:28;;;;;;;2.80;1.52;;;;;;;17.40;76.49;99156.13;1662811;86;25473;-62
2022/08/11 16:11:59;;;;;;;5.10;1.62;;;;;;;17.38;76.23;99152.06;1661375;86;25727;-62
2022/08/11 16:17:16;;;;;;;5.30;1.50;;;;;;;17.47;75.79;99153.35;1662505;86;25608;-61
2022/08/11 16:19:46;;;;;;;1.67;1.25;;;;;;;17.42;75.94;99155.18;1662714;86;28373;-61
2022/08/11 16:22:18;;;;;;;2.33;1.32;;;;;;;17.37;76.29;99156.00;1662705;85;25655;-62
2022/08/11 16:24:46;;;;;;;1.60;1.20;;;;;;;17.37;77.78;99162.93;1662203;86;25493;-61
2022/08/11 16:27:13;;;;;;;4.25;1.30;;;;;;;17.35;77.82;99161.07;1662416;86;25841;-62
2022/08/11 16:29:44;;;;;;;3.55;1.15;;;;;;;17.35;76.12;99162.45;1662511;85;25490;-62
2022/08/11 16:32:19;;;;;;;3.72;1.40;;;;;;;17.26;76.43;99166.17;1662484;86;28675;-61
2022/08/11 16:40:23;;;;;;;1.77;1.42;;;;;;;17.21;75.35;99155.31;1662549;86;25643;-62
2022/08/11 16:48:27;;;;;;;5.78;2.35;;;;;;;17.38;74.76;99136.27;1662362;86;25510;-62
2022/08/11 16:50:55;;;;;;;4.20;2.00;;;;;;;17.33;75.07;99138.47;1662503;86;25461;-61
2022/08/11 16:53:22;;;;;;;6.15;2.00;;;;;;;17.26;75.27;99146.78;1662375;86;25779;-62
2022/08/11 16:55:51;;;;;;;4.35;1.72;;;;;;;17.29;75.78;99143.89;1662644;86;25417;-61
2022/08/11 17:01:06;;;;;;;1.98;1.80;;;;;;;17.26;75.40;99141.24;1662187;86;25457;-62
2022/08/11 17:14:47;;;;;;;6.25;3.70;;;;;;;17.24;74.80;99138.59;1662381;86;25666;-61
2022/08/11 17:17:24;;;;;;;5.03;2.08;;;;;;;17.11;74.95;99135.83;1661880;86;25692;-63
2022/08/11 17:19:55;;;;;;;4.70;2.15;;;;;;;16.99;75.27;99132.45;1662754;86;25812;-62
2022/08/11 17:25:09;;;;;;;2.27;1.57;;;;;;;16.87;74.65;99137.39;1662549;86;27593;-62
2022/08/11 17:27:38;;;;;;;4.22;1.90;;;;;;;16.86;74.65;99126.66;1663103;86;25747;-62
2022/08/11 17:30:07;;;;;;;3.35;1.92;;;;;;;16.86;74.23;99130.81;1663374;86;25704;-62
2022/08/11 17:35:37;;;;;;;4.72;2.40;;;;;;;16.88;74.29;99132.10;1663106;86;25645;-62
2022/08/11 17:38:22;;;;;;;2.87;2.40;;;;;;;16.96;74.22;99130.95;1663102;86;28355;-61
2022/08/11 17:49:19;;;;;;;3.33;1.82;;;;;;;17.11;73.79;99136.40;1662572;86;25661;-62
2022/08/11 18:00:07;;;;;;;3.47;2.12;;;;;;;16.96;73.85;99129.00;1660689;86;25614;-62
2022/08/11 18:05:32;;;;;;;2.87;2.40;;;;;;;17.06;73.97;99131.87;1648927;87;25684;-62
